Cornucopia Destiny — WDE6386 — position and weather

sailwx.info

Track history (hours):
 
Tides and Currents Weather Stations Pressure Air Temp Water Temp Dewpoint Dewpoint Depression Visibility Wind Speed Wind Dir Waves Ship Positions

Cornucopia Destiny

Owner: Sultan Wholesale LLC, Keyport, NJ. More information available from US FCC via Universal Licensing System and Coast Guard Vessel Documentation Center.

Last reported at 2015-Mar-13 19:30 UTC. Time now 2015-Mar-29 09:22 UTC.
Position N 40°30' W 074°17'.
Warning: this ship's position is 15 days out of date.

Length 39 m.

Type: Passenger vessel. MMSI: 367379570.

Date/timePositionNaut miles runAvg speedWind from/ knotsBaromVisibWave heightAir tempDewpointWater temp
2015-Mar-13 19:30N 40°30' W 074°17'11 5.5
2015-Mar-13 17:33N 40°39' W 074°08'7 6.6
2015-Mar-13 16:34N 40°43' W 074°02'3 2.6
2015-Mar-13 15:33N 40°45' W 074°01'0 0.0
2015-Mar-13 04:05N 40°45' W 074°01'0 0.0
2015-Mar-13 03:34N 40°45' W 074°01'2 2.1
2015-Mar-13 02:34N 40°43' W 074°02'0 0.2
2015-Mar-13 01:33N 40°43' W 074°02'2 2.1
2015-Mar-13 00:33N 40°41' W 074°03'5 5.3
2015-Mar-12 23:33N 40°45' W 073°58'4 3.7
2015-Mar-12 22:33N 40°42' W 074°00'2 1.6
2015-Mar-12 21:33N 40°43' W 074°02'1 0.7
2015-Mar-12 20:33N 40°44' W 074°01'1 1.4
2015-Mar-12 19:33N 40°45' W 074°01'0 0.0
2015-Mar-12 18:33N 40°45' W 074°01'0 0.0
2015-Mar-12 17:33N 40°45' W 074°01'0 0.0
2015-Mar-12 16:33N 40°45' W 074°01'0 0.0
2015-Mar-12 15:33N 40°45' W 074°01'0 0.0
2015-Mar-11 18:33N 40°45' W 074°01'0 0.0
2015-Mar-11 17:33N 40°45' W 074°01'0 0.0
2015-Mar-11 16:33N 40°45' W 074°01'0 0.0
2015-Mar-11 15:34N 40°45' W 074°01'0 0.0
2015-Mar-11 14:33N 40°45' W 074°01'0 0.0
2015-Mar-10 20:34N 40°45' W 074°01'0 0.0
2015-Mar-10 19:33N 40°45' W 074°01'0 0.0
2015-Mar-10 18:33N 40°45' W 074°01'0 0.0
2015-Mar-10 17:33N 40°45' W 074°01'0 0.0
2015-Mar-10 16:33N 40°45' W 074°01'0 0.0
2015-Mar-10 15:33N 40°45' W 074°01'  
2015-Mar-06 21:33N 40°45' W 074°01'0 0.0
2015-Mar-06 20:33N 40°45' W 074°01'0 0.0
2015-Mar-06 19:33N 40°45' W 074°01'0 0.0
2015-Mar-04 23:22N 40°45' W 074°01'0 0.0
2015-Mar-04 22:33N 40°45' W 074°01'0 0.0
2015-Mar-04 21:33N 40°45' W 074°01'0 0.0
2015-Mar-04 20:33N 40°45' W 074°01'0 0.0
2015-Mar-04 19:33N 40°45' W 074°01'0 0.0
2015-Mar-04 18:33N 40°45' W 074°01'  
Track history (hours):
 
Tides and Currents Weather Stations Pressure Air Temp Water Temp Dewpoint Dewpoint Depression Visibility Wind Speed Wind Dir Waves Ship Positions

Cornucopia Destiny

Owner: Sultan Wholesale LLC, Keyport, NJ. More information available from US FCC via Universal Licensing System and Coast Guard Vessel Documentation Center.

Last reported at 2015-Mar-13 19:30 UTC. Time now 2015-Mar-29 09:22 UTC.
Position N 40°30' W 074°17'.
Warning: this ship's position is 15 days out of date.

Length 39 m.

Type: Passenger vessel. MMSI: 367379570.

Date/timePositionNaut miles runAvg speedWind from/ knotsBaromVisibWave heightAir tempDewpointWater temp
2015-Mar-13 19:30N 40°30' W 074°17'11 5.5
2015-Mar-13 17:33N 40°39' W 074°08'7 6.6
2015-Mar-13 16:34N 40°43' W 074°02'3 2.6
2015-Mar-13 15:33N 40°45' W 074°01'0 0.0
2015-Mar-13 04:05N 40°45' W 074°01'0 0.0
2015-Mar-13 03:34N 40°45' W 074°01'2 2.1
2015-Mar-13 02:34N 40°43' W 074°02'0 0.2
2015-Mar-13 01:33N 40°43' W 074°02'2 2.1
2015-Mar-13 00:33N 40°41' W 074°03'5 5.3
2015-Mar-12 23:33N 40°45' W 073°58'4 3.7
2015-Mar-12 22:33N 40°42' W 074°00'2 1.6
2015-Mar-12 21:33N 40°43' W 074°02'1 0.7
2015-Mar-12 20:33N 40°44' W 074°01'1 1.4
2015-Mar-12 19:33N 40°45' W 074°01'0 0.0
2015-Mar-12 18:33N 40°45' W 074°01'0 0.0
2015-Mar-12 17:33N 40°45' W 074°01'0 0.0
2015-Mar-12 16:33N 40°45' W 074°01'0 0.0
2015-Mar-12 15:33N 40°45' W 074°01'0 0.0
2015-Mar-11 18:33N 40°45' W 074°01'0 0.0
2015-Mar-11 17:33N 40°45' W 074°01'0 0.0
2015-Mar-11 16:33N 40°45' W 074°01'0 0.0
2015-Mar-11 15:34N 40°45' W 074°01'0 0.0
2015-Mar-11 14:33N 40°45' W 074°01'0 0.0
2015-Mar-10 20:34N 40°45' W 074°01'0 0.0
2015-Mar-10 19:33N 40°45' W 074°01'0 0.0
2015-Mar-10 18:33N 40°45' W 074°01'0 0.0
2015-Mar-10 17:33N 40°45' W 074°01'0 0.0
2015-Mar-10 16:33N 40°45' W 074°01'0 0.0
2015-Mar-10 15:33N 40°45' W 074°01'  
2015-Mar-06 21:33N 40°45' W 074°01'0 0.0
2015-Mar-06 20:33N 40°45' W 074°01'0 0.0
2015-Mar-06 19:33N 40°45' W 074°01'0 0.0
2015-Mar-04 23:22N 40°45' W 074°01'0 0.0
2015-Mar-04 22:33N 40°45' W 074°01'0 0.0
2015-Mar-04 21:33N 40°45' W 074°01'0 0.0
2015-Mar-04 20:33N 40°45' W 074°01'0 0.0
2015-Mar-04 19:33N 40°45' W 074°01'0 0.0
2015-Mar-04 18:33N 40°45' W 074°01'  

Dump ship's entire track history